Nineveh, Iraq
Current Conditions -  °F | °C
As of 11:00 PM on Monday 24 Nov 2014 (Local Time) from ORER Reporting Station
Broken Clouds Broken Clouds  
Wind Chill: 50°   Ceiling: 4000
Heat Index: 50°   Visibility: 6mi
Dew Point: 50°   Wind: 3mph
Humidity: 100%   Direction: NA
Pressure: 29.94"   Gusts: NA
Location:  36.37°N, 43.15°E
Report Text: ORER 242000Z VRB03KT 9999 BKN040 10/10 Q1014
Loading
Personal Weather Stations






























Interactive Weather Map New forecast layout! Learn more

10-Day Weather Forecast

Advertisements
Track Severe Weather on mobile